createdAt,value
2019-02-19T00:02:25.764Z,35.60
2019-02-19T00:04:51.746Z,35.70
2019-02-19T00:07:17.800Z,35.60
2019-02-19T00:09:43.854Z,35.60
2019-02-19T00:12:09.805Z,35.70
2019-02-19T00:14:35.747Z,35.60
2019-02-19T00:17:01.706Z,35.60
2019-02-19T00:19:27.659Z,35.60
2019-02-19T00:21:53.613Z,35.60
2019-02-19T00:24:19.587Z,35.60
2019-02-19T00:26:45.515Z,35.60
2019-02-19T00:29:11.498Z,35.60
2019-02-19T00:31:37.473Z,35.60
2019-02-19T00:34:03.427Z,35.50
2019-02-19T00:36:29.471Z,35.60
2019-02-19T00:38:55.473Z,35.60
2019-02-19T00:41:21.527Z,35.60
2019-02-19T00:43:47.487Z,35.50
2019-02-19T00:46:13.443Z,35.50
2019-02-19T00:48:39.399Z,35.50
2019-02-19T00:51:05.365Z,35.50
2019-02-19T00:53:31.325Z,35.60
2019-02-19T00:55:57.281Z,35.60
2019-02-19T00:58:23.218Z,35.50
2019-02-19T01:00:49.197Z,35.50
2019-02-19T01:03:15.149Z,35.60
2019-02-19T01:05:41.126Z,35.50
2019-02-19T01:08:07.117Z,35.90
2019-02-19T01:10:33.164Z,35.50
2019-02-19T01:12:59.121Z,35.50
2019-02-19T01:15:25.730Z,35.60
2019-02-19T01:17:51.927Z,35.50
2019-02-19T01:20:17.885Z,35.50
2019-02-19T01:22:43.827Z,35.50
2019-02-19T01:25:09.781Z,35.50
2019-02-19T01:27:35.755Z,35.40
2019-02-19T01:30:01.731Z,35.60
2019-02-19T01:32:27.777Z,35.50
2019-02-19T01:34:53.769Z,35.40
2019-02-19T01:37:19.831Z,35.50
2019-02-19T01:39:45.795Z,35.50
2019-02-19T01:42:12.202Z,35.60
2019-02-19T01:44:38.304Z,35.60
2019-02-19T01:47:04.498Z,35.50
2019-02-19T01:49:30.471Z,35.50
2019-02-19T01:51:56.532Z,35.40
2019-02-19T01:54:22.485Z,35.30
2019-02-19T01:56:48.417Z,35.40
2019-02-19T01:59:14.424Z,35.40
2019-02-19T02:01:40.458Z,35.40
2019-02-19T02:04:06.435Z,35.40
2019-02-19T02:06:32.388Z,36.10
2019-02-19T02:08:58.333Z,35.30
2019-02-19T02:11:24.369Z,35.40
2019-02-19T02:13:50.400Z,35.40
2019-02-19T02:16:16.337Z,35.40
2019-02-19T02:18:42.299Z,35.30
2019-02-19T02:21:08.269Z,35.20
2019-02-19T02:23:34.202Z,35.30
2019-02-19T02:26:00.165Z,35.20
2019-02-19T02:28:26.121Z,35.30
2019-02-19T02:30:52.169Z,35.30
2019-02-19T02:33:18.210Z,35.30
2019-02-19T02:35:44.203Z,35.30
2019-02-19T02:38:10.130Z,35.30
2019-02-19T02:40:36.135Z,35.30
2019-02-19T02:43:02.132Z,35.40
2019-02-19T02:45:28.150Z,35.30
2019-02-19T02:47:54.096Z,35.30
2019-02-19T02:50:20.055Z,35.20
2019-02-19T02:52:45.996Z,35.30
2019-02-19T02:55:11.933Z,35.20
2019-02-19T02:57:37.908Z,35.30
2019-02-19T03:00:03.844Z,35.30
2019-02-19T03:02:29.802Z,35.20
2019-02-19T03:04:55.765Z,35.30
2019-02-19T03:07:26.449Z,35.30
2019-02-19T03:09:52.406Z,35.30
2019-02-19T03:12:18.457Z,35.30
2019-02-19T03:14:44.492Z,35.30
2019-02-19T03:17:10.454Z,35.40
2019-02-19T03:19:36.392Z,35.30
2019-02-19T03:22:02.328Z,35.30
2019-02-19T03:24:28.298Z,35.30
2019-02-19T03:26:54.357Z,35.30
2019-02-19T03:29:20.302Z,36.00
2019-02-19T03:31:46.301Z,35.30
2019-02-19T03:34:12.339Z,35.30
2019-02-19T03:36:39.001Z,35.30
2019-02-19T03:39:05.298Z,35.30
2019-02-19T03:41:31.431Z,35.30
2019-02-19T03:43:57.387Z,35.30
2019-02-19T03:46:23.696Z,35.30
2019-02-19T03:48:49.744Z,35.30
2019-02-19T03:51:15.698Z,35.30
2019-02-19T03:53:41.886Z,35.20
2019-02-19T03:56:08.048Z,35.30
2019-02-19T03:58:33.994Z,35.20
2019-02-19T04:00:59.961Z,35.30
2019-02-19T04:03:26.014Z,35.20
2019-02-19T04:05:51.961Z,35.20
2019-02-19T04:08:18.015Z,35.80
2019-02-19T04:10:43.982Z,35.20
2019-02-19T04:13:10.045Z,35.20
2019-02-19T04:15:35.996Z,35.20
2019-02-19T04:18:01.942Z,35.20
2019-02-19T04:20:27.998Z,35.30
2019-02-19T04:22:53.943Z,35.10
2019-02-19T04:25:19.880Z,35.20
2019-02-19T04:27:45.848Z,35.10
2019-02-19T04:30:11.876Z,35.10
2019-02-19T04:32:37.830Z,35.10
2019-02-19T04:35:03.792Z,35.20
2019-02-19T04:37:30.135Z,35.10
2019-02-19T04:39:56.211Z,35.10
2019-02-19T04:42:22.165Z,35.10
2019-02-19T04:44:48.097Z,35.10
2019-02-19T04:47:14.075Z,35.10
2019-02-19T04:49:40.123Z,35.20
2019-02-19T04:52:06.856Z,35.20
2019-02-19T04:54:32.795Z,35.20
2019-02-19T04:56:58.723Z,35.10
2019-02-19T04:59:24.687Z,35.30
2019-02-19T05:01:50.631Z,35.20
2019-02-19T05:04:16.580Z,35.20
2019-02-19T05:06:42.539Z,35.20
2019-02-19T05:09:08.498Z,35.20
2019-02-19T05:11:34.440Z,35.30
2019-02-19T05:14:00.469Z,35.40
2019-02-19T05:16:26.744Z,35.50
2019-02-19T05:18:52.685Z,35.70
2019-02-19T05:21:18.641Z,35.70
2019-02-19T05:23:44.603Z,35.90
2019-02-19T05:26:10.561Z,35.70
2019-02-19T05:28:36.497Z,35.70
2019-02-19T05:31:02.445Z,35.70
2019-02-19T05:33:28.394Z,35.70
2019-02-19T05:35:54.383Z,35.60
2019-02-19T05:38:20.335Z,35.60
2019-02-19T05:40:46.305Z,35.50
2019-02-19T05:43:12.377Z,35.50
2019-02-19T05:45:38.413Z,35.50
2019-02-19T05:48:05.354Z,35.50
2019-02-19T05:50:31.415Z,35.60
2019-02-19T05:52:57.385Z,35.50
2019-02-19T05:55:23.355Z,35.60
2019-02-19T05:57:49.327Z,35.60
2019-02-19T06:00:15.298Z,35.60
2019-02-19T06:02:41.757Z,35.60
2019-02-19T06:05:07.702Z,35.60
2019-02-19T06:07:33.674Z,35.70
2019-02-19T06:09:59.739Z,35.70
2019-02-19T06:12:40.677Z,36.30
2019-02-19T06:15:06.731Z,35.70
2019-02-19T06:17:32.696Z,35.70
2019-02-19T06:19:58.641Z,35.70
2019-02-19T06:22:24.585Z,35.70
2019-02-19T06:24:50.525Z,35.70
2019-02-19T06:27:16.456Z,35.70
2019-02-19T06:29:42.418Z,35.70
2019-02-19T06:32:08.371Z,35.70
2019-02-19T06:34:34.326Z,35.70
2019-02-19T06:37:00.261Z,35.80
2019-02-19T06:39:26.216Z,35.70
2019-02-19T06:41:52.289Z,35.70
2019-02-19T06:44:18.317Z,35.70
2019-02-19T06:46:44.268Z,35.70
2019-02-19T06:49:10.230Z,35.80
2019-02-19T06:51:36.273Z,35.70
2019-02-19T06:54:02.208Z,36.30
2019-02-19T06:56:28.139Z,35.70
2019-02-19T06:58:54.126Z,35.80
2019-02-19T07:01:22.093Z,36.30
2019-02-19T07:03:49.932Z,35.90
2019-02-19T07:06:15.873Z,35.70
2019-02-19T07:08:41.841Z,35.70
2019-02-19T07:11:07.882Z,35.70
2019-02-19T07:13:33.817Z,35.60
2019-02-19T07:15:59.760Z,35.70
2019-02-19T07:18:25.732Z,35.70
2019-02-19T07:20:51.681Z,35.60
2019-02-19T07:23:17.638Z,35.60
2019-02-19T07:25:43.580Z,35.60
2019-02-19T07:28:09.536Z,35.70
2019-02-19T07:30:35.479Z,35.60
2019-02-19T07:33:01.431Z,35.70
2019-02-19T07:35:27.399Z,35.70
2019-02-19T07:37:53.424Z,35.70
2019-02-19T07:40:19.402Z,35.70
2019-02-19T07:42:45.328Z,35.70
2019-02-19T07:45:11.289Z,35.70
2019-02-19T07:47:37.225Z,35.70
2019-02-19T07:50:03.174Z,35.70
2019-02-19T07:52:29.122Z,35.70
2019-02-19T07:54:55.054Z,36.50
2019-02-19T07:57:21.016Z,35.80
2019-02-19T07:59:46.982Z,35.70
2019-02-19T08:02:12.941Z,35.70
2019-02-19T08:04:38.996Z,35.70
2019-02-19T08:07:04.944Z,35.80
2019-02-19T08:09:30.916Z,35.90
2019-02-19T08:11:56.948Z,35.90
2019-02-19T08:14:22.889Z,35.80
2019-02-19T08:16:48.856Z,35.80
2019-02-19T08:19:14.810Z,35.80
2019-02-19T08:21:40.745Z,35.90
2019-02-19T08:24:06.720Z,36.20
2019-02-19T08:26:32.678Z,35.90
2019-02-19T08:29:11.331Z,35.80
2019-02-19T08:31:26.505Z,35.80
2019-02-19T08:33:52.444Z,35.80
2019-02-19T08:36:18.383Z,35.80
2019-02-19T08:38:44.313Z,35.80
2019-02-19T08:41:10.260Z,35.80
2019-02-19T08:43:36.220Z,35.70
2019-02-19T08:46:02.172Z,35.70
2019-02-19T08:48:28.124Z,35.80
2019-02-19T08:50:54.083Z,35.70
2019-02-19T08:53:20.022Z,35.70
2019-02-19T08:55:45.966Z,35.70
2019-02-19T08:58:11.901Z,35.70
2019-02-19T09:00:38.593Z,35.60
2019-02-19T09:03:04.620Z,35.60
2019-02-19T09:05:30.697Z,35.50
2019-02-19T09:07:56.646Z,35.50
2019-02-19T09:10:22.626Z,35.50
2019-02-19T09:12:48.602Z,35.50
2019-02-19T09:15:14.625Z,35.50
2019-02-19T09:17:40.579Z,35.50
2019-02-19T09:20:06.630Z,35.40
2019-02-19T09:22:32.668Z,35.40
2019-02-19T09:24:58.625Z,35.30
2019-02-19T09:27:24.596Z,35.30
2019-02-19T09:29:50.576Z,35.30
2019-02-19T09:32:17.113Z,35.30
2019-02-19T09:34:43.079Z,35.40
2019-02-19T09:37:09.040Z,35.30
2019-02-19T09:39:35.006Z,35.20
2019-02-19T09:42:01.046Z,35.00
2019-02-19T09:44:27.011Z,35.10
2019-02-19T09:46:52.959Z,35.10
2019-02-19T09:49:18.911Z,35.10
2019-02-19T09:51:45.573Z,35.10
2019-02-19T09:54:11.641Z,35.00
2019-02-19T09:56:37.586Z,34.90
2019-02-19T09:59:03.552Z,34.90
2019-02-19T10:01:30.443Z,34.70
2019-02-19T10:03:56.409Z,34.60
2019-02-19T10:06:22.368Z,34.50
2019-02-19T10:08:48.356Z,34.40
2019-02-19T10:11:14.412Z,34.40
2019-02-19T10:13:40.472Z,34.30
2019-02-19T10:16:06.417Z,34.90
2019-02-19T10:18:32.355Z,34.10
2019-02-19T10:20:59.721Z,34.20
2019-02-19T10:23:25.955Z,34.20
2019-02-19T10:25:51.911Z,34.30
2019-02-19T10:28:19.415Z,34.30
2019-02-19T10:30:45.374Z,34.30
2019-02-19T10:33:11.321Z,35.00
2019-02-19T10:35:37.289Z,34.40
2019-02-19T10:38:03.245Z,34.40
2019-02-19T10:40:29.206Z,34.40
2019-02-19T10:42:55.152Z,34.40
2019-02-19T10:45:21.112Z,34.40
2019-02-19T10:47:47.075Z,34.40
2019-02-19T10:50:13.032Z,34.50
2019-02-19T10:52:39.265Z,34.40
2019-02-19T10:55:05.316Z,34.30
2019-02-19T10:57:31.293Z,34.30
2019-02-19T10:59:57.317Z,34.30
2019-02-19T11:02:23.270Z,34.30
2019-02-19T11:04:49.243Z,34.30
2019-02-19T11:07:15.186Z,34.30
2019-02-19T11:09:41.244Z,34.30
2019-02-19T11:12:07.191Z,34.30
2019-02-19T11:14:33.132Z,34.30
2019-02-19T11:16:59.094Z,34.30
2019-02-19T11:19:25.057Z,34.30
2019-02-19T11:21:51.157Z,34.30
2019-02-19T11:24:17.130Z,34.30
2019-02-19T11:26:43.064Z,34.30
2019-02-19T11:29:09.040Z,34.30
2019-02-19T11:31:35.001Z,34.30
2019-02-19T11:34:00.950Z,34.40
2019-02-19T11:36:26.888Z,35.00
2019-02-19T11:38:52.842Z,34.30
2019-02-19T11:41:18.784Z,34.30
2019-02-19T11:43:44.775Z,34.40
2019-02-19T11:46:10.791Z,34.40
2019-02-19T11:48:37.304Z,34.40
2019-02-19T11:51:03.426Z,34.50
2019-02-19T11:53:29.400Z,34.40
2019-02-19T11:55:55.336Z,34.60
2019-02-19T11:58:21.287Z,34.50
2019-02-19T12:00:47.232Z,34.60
2019-02-19T12:03:13.183Z,34.50
2019-02-19T12:05:39.234Z,34.60
2019-02-19T12:08:05.192Z,34.50
2019-02-19T12:10:31.122Z,34.60
2019-02-19T12:12:57.062Z,34.60
2019-02-19T12:15:23.022Z,34.60
2019-02-19T12:17:48.960Z,34.60
2019-02-19T12:20:14.918Z,34.60
2019-02-19T12:22:40.877Z,34.60
2019-02-19T12:25:06.855Z,34.60
2019-02-19T12:27:32.792Z,34.60
2019-02-19T12:29:58.751Z,34.60
2019-02-19T12:32:24.728Z,34.60
2019-02-19T12:34:50.696Z,34.60
2019-02-19T12:37:16.661Z,34.60
2019-02-19T12:39:42.614Z,34.60
2019-02-19T12:42:08.590Z,34.60
2019-02-19T12:44:34.652Z,34.60
2019-02-19T12:47:00.706Z,34.60
2019-02-19T12:49:26.686Z,34.60
2019-02-19T12:51:52.642Z,34.60
2019-02-19T12:54:18.591Z,34.60
2019-02-19T12:56:44.584Z,34.70
2019-02-19T12:59:10.547Z,34.60
2019-02-19T13:01:36.507Z,34.60
2019-02-19T13:04:02.461Z,34.60
2019-02-19T13:06:28.416Z,34.60
2019-02-19T13:08:54.383Z,34.60
2019-02-19T13:11:20.336Z,35.30
2019-02-19T13:13:46.405Z,34.70
2019-02-19T13:16:12.396Z,34.70
2019-02-19T13:18:38.450Z,34.60
2019-02-19T13:21:04.402Z,34.60
2019-02-19T13:23:30.466Z,34.90
2019-02-19T13:25:56.393Z,34.70
2019-02-19T13:28:22.379Z,34.70
2019-02-19T13:30:48.453Z,34.70
2019-02-19T13:33:14.430Z,34.70
2019-02-19T13:35:40.376Z,34.90
2019-02-19T13:38:06.383Z,34.70
2019-02-19T13:40:32.331Z,34.70
2019-02-19T13:42:58.299Z,34.70
2019-02-19T13:45:24.267Z,34.70
2019-02-19T13:47:50.214Z,34.70
2019-02-19T13:50:16.188Z,34.70
2019-02-19T13:52:46.880Z,34.70
2019-02-19T13:55:14.768Z,34.70
2019-02-19T13:57:41.105Z,34.70
2019-02-19T14:00:08.982Z,34.70
2019-02-19T14:02:35.519Z,34.70
2019-02-19T14:05:01.499Z,34.80
2019-02-19T14:07:27.458Z,34.70
2019-02-19T14:09:53.517Z,34.70
2019-02-19T14:12:19.453Z,34.80
2019-02-19T14:14:53.183Z,34.90
2019-02-19T14:17:19.344Z,34.90
2019-02-19T14:19:47.300Z,34.90
2019-02-19T14:22:25.030Z,34.90
2019-02-19T14:25:09.734Z,34.90
2019-02-19T14:27:37.589Z,34.90
2019-02-19T14:30:17.769Z,34.80
2019-02-19T14:33:00.965Z,34.80
2019-02-19T14:35:31.649Z,34.90
2019-02-19T14:38:02.506Z,34.80
2019-02-19T14:40:33.665Z,34.80
2019-02-19T14:43:13.643Z,34.80
2019-02-19T14:45:47.471Z,34.80
2019-02-19T14:48:24.591Z,34.90
2019-02-19T14:50:52.471Z,34.80
2019-02-19T14:53:23.183Z,35.00
2019-02-19T14:56:03.336Z,34.80
2019-02-19T14:58:48.403Z,34.70
2019-02-19T15:01:19.162Z,34.90
2019-02-19T15:03:55.949Z,35.40
2019-02-19T15:06:23.821Z,34.90
2019-02-19T15:08:51.681Z,34.90
2019-02-19T15:11:36.177Z,34.90
2019-02-19T15:14:22.415Z,35.00
2019-02-19T15:17:02.599Z,35.00
2019-02-19T15:19:39.131Z,35.10
2019-02-19T15:22:06.795Z,35.00
2019-02-19T15:24:40.567Z,35.00
2019-02-19T15:27:08.435Z,35.00
2019-02-19T15:29:45.389Z,35.10
2019-02-19T15:32:30.053Z,35.10
2019-02-19T15:35:07.264Z,35.20
2019-02-19T15:37:35.139Z,35.10
2019-02-19T15:40:08.791Z,35.20
2019-02-19T15:42:42.707Z,35.30
2019-02-19T15:45:16.629Z,35.20
2019-02-19T15:47:47.606Z,35.20
2019-02-19T15:50:32.289Z,35.20
2019-02-19T15:53:03.183Z,35.40
2019-02-19T15:55:43.114Z,35.30
2019-02-19T15:58:10.981Z,35.30
2019-02-19T16:00:41.617Z,35.30
2019-02-19T16:03:09.453Z,35.20
2019-02-19T16:05:40.084Z,35.20
2019-02-19T16:08:23.309Z,35.20
2019-02-19T16:10:54.242Z,35.20
2019-02-19T16:13:22.130Z,35.10
2019-02-19T16:15:50.065Z,35.10
2019-02-19T16:18:20.794Z,35.10
2019-02-19T16:21:05.394Z,35.10
2019-02-19T16:23:33.242Z,35.70
2019-02-19T16:26:18.788Z,35.10
2019-02-19T16:28:52.743Z,34.90
2019-02-19T16:31:38.496Z,34.90
2019-02-19T16:34:06.372Z,35.40
2019-02-19T16:36:52.367Z,35.10
2019-02-19T16:39:23.073Z,35.10
2019-02-19T16:41:56.988Z,34.70
2019-02-19T16:44:24.838Z,35.00
2019-02-19T16:47:10.912Z,35.00
2019-02-19T16:49:50.938Z,35.00
2019-02-19T16:52:24.861Z,35.00
2019-02-19T16:54:52.754Z,35.10
2019-02-19T16:57:20.858Z,35.10
2019-02-19T16:59:51.492Z,35.10
2019-02-19T17:02:19.464Z,35.00
2019-02-19T17:04:53.663Z,35.00
2019-02-19T17:07:21.514Z,35.50
2019-02-19T17:09:49.374Z,34.90
2019-02-19T17:12:17.956Z,34.90
2019-02-19T17:14:45.818Z,34.90
2019-02-19T17:17:19.979Z,35.00
2019-02-19T17:19:56.823Z,34.90
2019-02-19T17:22:24.704Z,35.00
2019-02-19T17:25:01.639Z,35.00
2019-02-19T17:27:35.439Z,35.00
2019-02-19T17:30:03.323Z,34.90
2019-02-19T17:32:37.150Z,35.00
2019-02-19T17:35:08.072Z,35.10
2019-02-19T17:37:53.147Z,35.10
2019-02-19T17:40:37.875Z,35.10
2019-02-19T17:43:08.725Z,35.00
2019-02-19T17:45:39.428Z,34.90
2019-02-19T17:48:07.371Z,35.00
2019-02-19T17:50:38.398Z,34.80
2019-02-19T17:53:05.014Z,34.90
2019-02-19T17:55:49.844Z,35.00
2019-02-19T17:58:17.735Z,35.00
2019-02-19T18:00:48.604Z,35.00
2019-02-19T18:03:22.568Z,35.10
2019-02-19T18:05:50.499Z,35.20
2019-02-19T18:08:18.365Z,35.10
2019-02-19T18:11:01.730Z,35.20
2019-02-19T18:13:38.660Z,35.30
2019-02-19T18:16:16.000Z,35.30
2019-02-19T18:18:51.707Z,35.30
2019-02-19T18:21:17.681Z,35.40
2019-02-19T18:23:43.740Z,35.30
2019-02-19T18:26:09.801Z,35.30
2019-02-19T18:28:35.857Z,35.30
2019-02-19T18:31:01.926Z,35.40
2019-02-19T18:33:28.016Z,35.90
2019-02-19T18:35:54.468Z,35.40
2019-02-19T18:38:20.541Z,35.30
2019-02-19T18:40:46.523Z,35.30
2019-02-19T18:43:12.562Z,35.40
2019-02-19T18:45:38.511Z,35.40
2019-02-19T18:48:04.473Z,35.40
2019-02-19T18:50:30.411Z,35.50
2019-02-19T18:52:56.371Z,35.40
2019-02-19T18:55:22.426Z,35.30
2019-02-19T18:57:48.391Z,35.20
2019-02-19T19:00:14.347Z,35.20
2019-02-19T19:02:40.773Z,35.20
2019-02-19T19:05:06.850Z,35.20
2019-02-19T19:07:32.890Z,35.10
2019-02-19T19:09:58.856Z,35.10
2019-02-19T19:12:25.306Z,35.10
2019-02-19T19:14:51.352Z,35.10
2019-02-19T19:17:17.301Z,35.10
2019-02-19T19:19:43.275Z,35.20
2019-02-19T19:22:09.441Z,35.30
2019-02-19T19:24:35.421Z,35.20
2019-02-19T19:27:01.361Z,35.20
2019-02-19T19:29:27.337Z,35.20
2019-02-19T19:31:53.417Z,35.70
2019-02-19T19:34:19.371Z,35.40
2019-02-19T19:36:45.329Z,35.50
2019-02-19T19:39:11.303Z,35.40
2019-02-19T19:41:37.247Z,35.50
2019-02-19T19:44:03.237Z,36.30
2019-02-19T19:46:29.168Z,35.50
2019-02-19T19:48:55.134Z,35.30
2019-02-19T19:51:21.179Z,35.60
2019-02-19T19:53:47.136Z,35.70
2019-02-19T19:56:13.110Z,35.80
2019-02-19T19:58:39.039Z,36.00
2019-02-19T20:01:05.038Z,36.00
2019-02-19T20:03:31.019Z,36.10
2019-02-19T20:05:57.056Z,36.20
2019-02-19T20:08:23.009Z,36.20
2019-02-19T20:10:48.985Z,36.10
2019-02-19T20:13:14.930Z,36.00
2019-02-19T20:15:40.873Z,36.00
2019-02-19T20:18:06.828Z,36.00
2019-02-19T20:20:32.812Z,36.00
2019-02-19T20:22:58.877Z,35.90
2019-02-19T20:25:24.927Z,36.00
2019-02-19T20:27:50.879Z,35.90
2019-02-19T20:30:16.818Z,35.90
2019-02-19T20:32:42.762Z,35.90
2019-02-19T20:35:08.721Z,35.90
2019-02-19T20:37:34.672Z,35.70
2019-02-19T20:40:00.613Z,35.60
2019-02-19T20:42:27.317Z,35.70
2019-02-19T20:44:53.258Z,35.60
2019-02-19T20:47:19.226Z,35.60
2019-02-19T20:49:45.199Z,35.50
2019-02-19T20:52:12.198Z,35.50
2019-02-19T20:54:38.140Z,35.50
2019-02-19T20:57:04.088Z,35.50
2019-02-19T20:59:30.064Z,35.50
2019-02-19T21:01:56.020Z,35.50
2019-02-19T21:04:22.069Z,35.50
2019-02-19T21:06:48.027Z,35.50
2019-02-19T21:09:14.062Z,35.50
2019-02-19T21:11:39.996Z,35.40
2019-02-19T21:14:05.965Z,35.50
2019-02-19T21:16:32.003Z,35.50
2019-02-19T21:18:57.960Z,35.50
2019-02-19T21:21:23.940Z,35.50
2019-02-19T21:23:49.908Z,35.50
2019-02-19T21:26:15.976Z,35.60
2019-02-19T21:28:41.918Z,35.80
2019-02-19T21:31:07.885Z,35.60
2019-02-19T21:33:33.831Z,35.60
2019-02-19T21:35:59.781Z,35.60
2019-02-19T21:38:25.725Z,35.60
2019-02-19T21:40:51.697Z,35.60
2019-02-19T21:43:17.658Z,35.60
2019-02-19T21:45:43.645Z,35.60
2019-02-19T21:48:09.688Z,35.60
2019-02-19T21:50:35.650Z,35.70
2019-02-19T21:53:01.594Z,35.70
2019-02-19T21:55:27.573Z,35.70
2019-02-19T21:57:53.535Z,35.60
2019-02-19T22:00:20.294Z,35.80
2019-02-19T22:02:46.235Z,35.70
2019-02-19T22:05:12.189Z,35.70
2019-02-19T22:07:38.272Z,35.70
2019-02-19T22:10:04.215Z,35.80
2019-02-19T22:12:30.191Z,35.60
2019-02-19T22:14:56.134Z,35.70
2019-02-19T22:17:22.093Z,35.60
2019-02-19T22:19:48.060Z,35.70
2019-02-19T22:22:14.028Z,35.70
2019-02-19T22:24:40.063Z,35.70
2019-02-19T22:27:06.007Z,35.70
2019-02-19T22:29:32.051Z,35.80
2019-02-19T22:31:58.001Z,35.70
2019-02-19T22:34:23.939Z,35.70
2019-02-19T22:36:49.903Z,35.80
2019-02-19T22:39:15.856Z,35.70
2019-02-19T22:41:41.813Z,35.70
2019-02-19T22:44:07.759Z,35.80
2019-02-19T22:46:33.727Z,35.80
2019-02-19T22:48:59.681Z,35.80
2019-02-19T22:51:25.635Z,35.80
2019-02-19T22:54:05.765Z,35.80
2019-02-19T22:56:33.652Z,35.80
2019-02-19T22:58:59.699Z,35.90
2019-02-19T23:01:33.480Z,35.90
2019-02-19T23:03:59.445Z,36.00
2019-02-19T23:06:25.369Z,35.90
2019-02-19T23:08:51.305Z,35.90
2019-02-19T23:11:17.255Z,36.00
2019-02-19T23:13:43.223Z,36.00
2019-02-19T23:16:09.308Z,35.90
2019-02-19T23:18:35.333Z,35.90
2019-02-19T23:21:01.319Z,35.90
2019-02-19T23:23:27.275Z,35.90
2019-02-19T23:25:53.248Z,36.00
2019-02-19T23:28:19.331Z,35.90
2019-02-19T23:30:45.394Z,35.90
2019-02-19T23:33:11.429Z,35.90
2019-02-19T23:35:57.995Z,35.90
2019-02-19T23:38:23.957Z,36.00
2019-02-19T23:40:50.019Z,35.90
2019-02-19T23:43:15.990Z,35.50
2019-02-19T23:45:41.924Z,36.50
2019-02-19T23:48:07.861Z,35.90
2019-02-19T23:50:33.797Z,35.90
2019-02-19T23:52:59.785Z,36.00
2019-02-19T23:55:25.722Z,35.90
2019-02-19T23:57:51.661Z,36.00
